createdAt,value
2017-06-19T00:00:14.675Z,23.72
2017-06-19T00:01:24.974Z,23.72
2017-06-19T00:02:34.612Z,23.7
2017-06-19T00:03:44.564Z,23.76
2017-06-19T00:04:54.826Z,23.7
2017-06-19T00:06:04.778Z,23.76
2017-06-19T00:07:14.097Z,23.69
2017-06-19T00:08:23.106Z,23.68
2017-06-19T00:09:32.430Z,23.68
2017-06-19T00:10:42.061Z,23.76
2017-06-19T00:11:52.015Z,23.75
2017-06-19T00:13:02.279Z,23.75
2017-06-19T00:14:12.223Z,23.76
2017-06-19T00:15:22.487Z,23.72
2017-06-19T00:16:32.793Z,23.73
2017-06-19T00:17:43.056Z,23.69
2017-06-19T00:18:53.007Z,23.72
2017-06-19T00:20:03.276Z,23.7
2017-06-19T00:21:13.542Z,23.69
2017-06-19T00:22:23.495Z,23.76
2017-06-19T00:23:33.765Z,23.68
2017-06-19T00:24:43.715Z,23.7
2017-06-19T00:25:53.667Z,23.73
2017-06-19T00:27:03.930Z,23.73
2017-06-19T00:28:13.883Z,23.75
2017-06-19T00:29:24.149Z,23.75
2017-06-19T00:30:34.104Z,23.73
2017-06-19T00:31:44.371Z,23.75
2017-06-19T00:32:54.012Z,23.72
2017-06-19T00:34:04.276Z,23.73
2017-06-19T00:35:13.908Z,23.69
2017-06-19T00:36:23.860Z,23.68
2017-06-19T00:37:33.493Z,23.66
2017-06-19T00:38:43.756Z,23.7
2017-06-19T00:39:53.703Z,23.68
2017-06-19T00:41:03.654Z,23.75
2017-06-19T00:42:13.607Z,23.73
2017-06-19T00:43:23.889Z,23.68
2017-06-19T00:44:34.149Z,23.7
2017-06-19T00:45:43.829Z,23.76
2017-06-19T00:46:53.475Z,23.73
2017-06-19T00:48:03.423Z,23.73
2017-06-19T00:49:13.082Z,23.6
2017-06-19T00:50:23.032Z,23.61
2017-06-19T00:51:32.984Z,23.73
2017-06-19T00:52:43.249Z,23.69
2017-06-19T00:53:53.195Z,23.73
2017-06-19T00:55:02.831Z,23.75
2017-06-19T00:56:12.466Z,23.58
2017-06-19T00:57:22.733Z,23.69
2017-06-19T00:58:32.997Z,23.75
2017-06-19T00:59:42.945Z,23.65
2017-06-19T01:00:53.215Z,23.7
2017-06-19T01:02:03.482Z,23.75
2017-06-19T01:03:13.739Z,23.7
2017-06-19T01:04:24.026Z,23.65
2017-06-19T01:05:34.293Z,23.54
2017-06-19T01:06:44.559Z,23.72
2017-06-19T01:07:54.506Z,23.73
2017-06-19T01:09:04.141Z,23.6
2017-06-19T01:10:14.411Z,23.65
2017-06-19T01:11:24.361Z,23.61
2017-06-19T01:12:34.315Z,23.6
2017-06-19T01:13:44.586Z,23.63
2017-06-19T01:14:54.848Z,23.65
2017-06-19T01:16:04.794Z,23.57
2017-06-19T01:17:15.063Z,23.6
2017-06-19T01:18:25.014Z,23.58
2017-06-19T01:19:34.646Z,23.58
2017-06-19T01:20:44.911Z,23.6
2017-06-19T01:21:55.177Z,23.63
2017-06-19T01:23:05.129Z,23.65
2017-06-19T01:24:15.084Z,23.61
2017-06-19T01:25:25.352Z,23.63
2017-06-19T01:26:35.301Z,23.63
2017-06-19T01:27:45.247Z,23.63
2017-06-19T01:28:55.243Z,23.6
2017-06-19T01:30:05.533Z,23.6
2017-06-19T01:31:14.553Z,23.58
2017-06-19T01:32:24.501Z,23.57
2017-06-19T01:33:34.768Z,23.66
2017-06-19T01:34:44.716Z,23.6
2017-06-19T01:35:54.672Z,23.6
2017-06-19T01:37:04.941Z,23.61
2017-06-19T01:38:14.884Z,23.63
2017-06-19T01:39:24.520Z,23.6
2017-06-19T01:40:34.787Z,23.57
2017-06-19T01:41:45.049Z,23.58
2017-06-19T01:42:54.997Z,23.57
2017-06-19T01:44:05.271Z,23.63
2017-06-19T01:45:15.222Z,23.65
2017-06-19T01:46:25.487Z,23.68
2017-06-19T01:47:35.755Z,23.63
2017-06-19T01:48:46.032Z,23.68
2017-06-19T01:49:56.006Z,23.68
2017-06-19T01:51:05.957Z,23.58
2017-06-19T01:52:15.589Z,23.61
2017-06-19T01:53:25.859Z,23.58
2017-06-19T01:54:35.804Z,23.61
2017-06-19T01:55:46.104Z,23.66
2017-06-19T01:56:56.059Z,23.65
2017-06-19T01:58:06.361Z,23.63
2017-06-19T01:59:15.682Z,23.63
2017-06-19T02:00:25.320Z,23.6
2017-06-19T02:01:35.588Z,23.65
2017-06-19T02:02:45.539Z,23.61
2017-06-19T02:03:55.805Z,23.6
2017-06-19T02:05:06.074Z,23.61
2017-06-19T02:06:16.338Z,23.65
2017-06-19T02:07:26.290Z,23.63
2017-06-19T02:08:36.241Z,23.61
2017-06-19T02:09:46.191Z,23.57
2017-06-19T02:10:56.136Z,23.58
2017-06-19T02:12:06.404Z,23.61
2017-06-19T02:13:16.667Z,23.63
2017-06-19T02:14:26.935Z,23.66
2017-06-19T02:15:36.881Z,23.57
2017-06-19T02:16:46.550Z,23.57
2017-06-19T02:17:56.502Z,23.55
2017-06-19T02:19:06.448Z,23.55
2017-06-19T02:20:16.715Z,23.51
2017-06-19T02:21:26.669Z,23.63
2017-06-19T02:22:36.932Z,23.61
2017-06-19T02:23:47.207Z,23.57
2017-06-19T02:24:57.470Z,23.58
2017-06-19T02:26:07.106Z,23.63
2017-06-19T02:27:16.737Z,23.63
2017-06-19T02:28:26.686Z,23.65
2017-06-19T02:29:36.659Z,23.57
2017-06-19T02:30:46.610Z,23.58
2017-06-19T02:31:56.563Z,23.55
2017-06-19T02:33:06.515Z,23.63
2017-06-19T02:34:16.809Z,23.53
2017-06-19T02:35:27.073Z,23.57
2017-06-19T02:36:36.709Z,23.53
2017-06-19T02:37:46.664Z,23.55
2017-06-19T02:38:56.663Z,23.6
2017-06-19T02:40:06.935Z,23.58
2017-06-19T02:41:17.203Z,23.58
2017-06-19T02:42:26.522Z,23.57
2017-06-19T02:43:36.795Z,23.58
2017-06-19T02:44:46.743Z,23.58
2017-06-19T02:45:56.069Z,23.55
2017-06-19T02:47:06.053Z,23.57
2017-06-19T02:48:15.384Z,23.53
2017-06-19T02:49:24.708Z,23.57
2017-06-19T02:50:34.976Z,23.55
2017-06-19T02:51:45.242Z,23.55
2017-06-19T02:52:55.503Z,23.57
2017-06-19T02:54:05.454Z,23.51
2017-06-19T02:55:15.107Z,23.53
2017-06-19T02:56:25.369Z,23.57
2017-06-19T02:57:35.634Z,23.54
2017-06-19T02:58:45.584Z,23.53
2017-06-19T02:59:55.851Z,23.54
2017-06-19T03:01:05.801Z,23.54
2017-06-19T03:02:15.432Z,23.55
2017-06-19T03:03:25.384Z,23.58
2017-06-19T03:04:35.652Z,23.48
2017-06-19T03:05:45.925Z,23.55
2017-06-19T03:06:56.195Z,23.55
2017-06-19T03:08:06.149Z,23.51
2017-06-19T03:09:15.469Z,23.54
2017-06-19T03:10:25.422Z,23.54
2017-06-19T03:11:35.378Z,23.51
2017-06-19T03:12:45.328Z,23.57
2017-06-19T03:13:55.589Z,23.53
2017-06-19T03:15:05.542Z,23.57
2017-06-19T03:16:15.499Z,23.51
2017-06-19T03:17:25.763Z,23.58
2017-06-19T03:18:35.712Z,23.55
2017-06-19T03:19:45.350Z,23.53
2017-06-19T03:20:55.297Z,23.6
2017-06-19T03:22:05.250Z,23.54
2017-06-19T03:23:15.206Z,23.55
2017-06-19T03:24:25.468Z,23.57
2017-06-19T03:25:35.732Z,23.55
2017-06-19T03:26:45.686Z,23.51
2017-06-19T03:27:55.953Z,23.58
2017-06-19T03:29:05.589Z,23.54
2017-06-19T03:30:15.526Z,23.57
2017-06-19T03:31:25.482Z,23.53
2017-06-19T03:32:35.750Z,23.57
2017-06-19T03:33:45.696Z,23.51
2017-06-19T03:34:55.337Z,23.54
2017-06-19T03:36:05.293Z,23.54
2017-06-19T03:37:15.242Z,23.48
2017-06-19T03:38:25.505Z,23.6
2017-06-19T03:39:35.457Z,23.65
2017-06-19T03:40:45.406Z,23.65
2017-06-19T03:41:55.048Z,23.61
2017-06-19T03:43:04.691Z,23.63
2017-06-19T03:44:14.641Z,23.54
2017-06-19T03:45:24.908Z,23.58
2017-06-19T03:46:34.867Z,23.61
2017-06-19T03:47:45.144Z,23.61
2017-06-19T03:48:55.450Z,23.57
2017-06-19T03:50:05.402Z,23.5
2017-06-19T03:51:15.040Z,23.51
2017-06-19T03:52:24.987Z,23.51
2017-06-19T03:53:35.255Z,23.51
2017-06-19T03:54:45.517Z,23.51
2017-06-19T03:55:55.466Z,23.51
2017-06-19T03:57:05.455Z,23.53
2017-06-19T03:58:15.407Z,23.48
2017-06-19T03:59:25.044Z,23.53
2017-06-19T04:00:35.350Z,23.51
2017-06-19T04:01:45.613Z,23.54
2017-06-19T04:02:55.876Z,23.58
2017-06-19T04:04:05.822Z,23.6
2017-06-19T04:05:16.092Z,23.55
2017-06-19T04:06:26.042Z,23.55
2017-06-19T04:07:36.323Z,23.54
2017-06-19T04:08:46.587Z,23.58
2017-06-19T04:09:56.876Z,23.61
2017-06-19T04:11:06.823Z,23.55
2017-06-19T04:12:16.777Z,23.55
2017-06-19T04:13:26.412Z,23.57
2017-06-19T04:14:36.680Z,23.51
2017-06-19T04:15:46.939Z,23.54
2017-06-19T04:16:57.208Z,23.55
2017-06-19T04:18:06.847Z,23.53
2017-06-19T04:19:17.111Z,23.53
2017-06-19T04:20:26.751Z,23.51
2017-06-19T04:21:36.106Z,23.57
2017-06-19T04:22:46.057Z,23.54
2017-06-19T04:23:56.324Z,23.6
2017-06-19T04:25:06.629Z,23.53
2017-06-19T04:26:16.583Z,23.57
2017-06-19T04:27:26.531Z,23.6
2017-06-19T04:28:36.167Z,23.57
2017-06-19T04:29:45.805Z,23.54
2017-06-19T04:30:55.757Z,23.61
2017-06-19T04:32:05.711Z,23.53
2017-06-19T04:33:15.976Z,23.54
2017-06-19T04:34:26.268Z,23.58
2017-06-19T04:35:35.273Z,23.54
2017-06-19T04:36:45.533Z,23.58
2017-06-19T04:37:55.794Z,23.6
2017-06-19T04:39:05.752Z,23.61
2017-06-19T04:40:15.702Z,23.6
2017-06-19T04:41:25.658Z,23.36
2017-06-19T04:42:35.930Z,23.27
2017-06-19T04:43:45.877Z,23.32
2017-06-19T04:44:55.824Z,23.27
2017-06-19T04:46:05.772Z,23.35
2017-06-19T04:47:15.412Z,23.48
2017-06-19T04:48:25.363Z,23.42
2017-06-19T04:49:35.319Z,23.5
2017-06-19T04:50:45.275Z,23.51
2017-06-19T04:51:55.545Z,23.6
2017-06-19T04:53:04.866Z,23.58
2017-06-19T04:54:14.849Z,23.61
2017-06-19T04:55:24.486Z,23.65
2017-06-19T04:56:34.779Z,23.57
2017-06-19T04:57:45.046Z,23.63
2017-06-19T04:58:55.316Z,23.63
2017-06-19T05:00:05.267Z,23.69
2017-06-19T05:01:15.214Z,23.63
2017-06-19T05:02:24.851Z,23.65
2017-06-19T05:03:34.174Z,23.58
2017-06-19T05:04:44.438Z,23.61
2017-06-19T05:05:54.069Z,23.61
2017-06-19T05:07:04.017Z,23.72
2017-06-19T05:08:13.975Z,23.7
2017-06-19T05:09:23.931Z,23.72
2017-06-19T05:10:34.204Z,23.61
2017-06-19T05:11:44.155Z,23.69
2017-06-19T05:12:54.112Z,23.69
2017-06-19T05:14:04.381Z,23.58
2017-06-19T05:15:14.372Z,23.75
2017-06-19T05:16:24.313Z,23.66
2017-06-19T05:17:34.581Z,23.69
2017-06-19T05:18:44.534Z,23.75
2017-06-19T05:19:54.481Z,23.75
2017-06-19T05:21:04.748Z,23.7
2017-06-19T05:22:14.700Z,23.73
2017-06-19T05:23:24.971Z,23.73
2017-06-19T05:24:34.629Z,23.75
2017-06-19T05:25:44.900Z,23.73
2017-06-19T05:26:54.854Z,23.75
2017-06-19T05:28:05.117Z,23.68
2017-06-19T05:29:14.440Z,23.7
2017-06-19T05:30:24.387Z,23.72
2017-06-19T05:31:34.337Z,23.73
2017-06-19T05:32:44.600Z,23.75
2017-06-19T05:33:54.866Z,23.72
2017-06-19T05:35:04.817Z,23.72
2017-06-19T05:36:14.764Z,23.73
2017-06-19T05:37:25.041Z,23.73
2017-06-19T05:38:35.302Z,23.78
2017-06-19T05:39:45.572Z,23.75
2017-06-19T05:40:55.527Z,23.75
2017-06-19T05:42:05.479Z,23.61
2017-06-19T05:43:15.743Z,23.78
2017-06-19T05:44:26.004Z,23.79
2017-06-19T05:45:35.951Z,23.76
2017-06-19T05:46:46.218Z,23.78
2017-06-19T05:47:56.169Z,23.78
2017-06-19T05:49:06.427Z,23.79
2017-06-19T05:50:16.065Z,23.84
2017-06-19T05:51:26.329Z,23.68
2017-06-19T05:52:36.596Z,23.66
2017-06-19T05:53:46.226Z,23.72
2017-06-19T05:54:56.485Z,23.75
2017-06-19T05:56:06.435Z,23.8
2017-06-19T05:57:16.700Z,23.75
2017-06-19T05:58:26.655Z,23.76
2017-06-19T05:59:36.943Z,23.8
2017-06-19T06:00:47.213Z,23.75
2017-06-19T06:01:56.855Z,23.84
2017-06-19T06:03:07.115Z,23.78
2017-06-19T06:04:17.380Z,23.78
2017-06-19T06:05:27.332Z,23.8
2017-06-19T06:06:37.281Z,23.72
2017-06-19T06:07:47.561Z,23.72
2017-06-19T06:08:57.510Z,23.69
2017-06-19T06:10:07.782Z,23.73
2017-06-19T06:11:17.412Z,23.76
2017-06-19T06:12:27.366Z,23.83
2017-06-19T06:13:37.632Z,23.79
2017-06-19T06:14:47.589Z,23.76
2017-06-19T06:15:57.544Z,23.83
2017-06-19T06:17:07.193Z,23.83
2017-06-19T06:18:17.144Z,23.88
2017-06-19T06:19:27.102Z,23.84
2017-06-19T06:20:37.377Z,23.78
2017-06-19T06:21:46.700Z,23.91
2017-06-19T06:22:56.341Z,23.79
2017-06-19T06:24:06.297Z,23.93
2017-06-19T06:25:15.619Z,23.88
2017-06-19T06:26:25.888Z,23.91
2017-06-19T06:27:36.161Z,23.83
2017-06-19T06:28:46.105Z,23.95
2017-06-19T06:29:56.370Z,23.9
2017-06-19T06:31:05.689Z,23.97
2017-06-19T06:32:15.639Z,23.91
2017-06-19T06:33:25.905Z,23.87
2017-06-19T06:34:35.548Z,23.97
2017-06-19T06:35:45.817Z,23.97
2017-06-19T06:36:55.770Z,23.97
2017-06-19T06:38:06.033Z,23.94
2017-06-19T06:39:15.664Z,24.02
2017-06-19T06:40:25.616Z,23.98
2017-06-19T06:41:35.568Z,23.97
2017-06-19T06:42:45.873Z,23.94
2017-06-19T06:43:55.831Z,23.95
2017-06-19T06:45:06.099Z,23.93
2017-06-19T06:46:16.087Z,23.95
2017-06-19T06:47:26.041Z,23.97
2017-06-19T06:48:35.675Z,24
2017-06-19T06:49:45.621Z,23.94
2017-06-19T06:50:55.884Z,24.03
2017-06-19T06:52:05.523Z,24.08
2017-06-19T06:53:15.790Z,24.02
2017-06-19T06:54:26.053Z,24.08
2017-06-19T06:55:36.008Z,24.08
2017-06-19T06:56:45.964Z,24.09
2017-06-19T06:57:55.598Z,24.08
2017-06-19T06:59:05.861Z,24.03
2017-06-19T07:00:16.130Z,24.03
2017-06-19T07:01:26.107Z,24.03
2017-06-19T07:02:36.062Z,24.08
2017-06-19T07:03:46.015Z,24.02
2017-06-19T07:04:56.280Z,24.08
2017-06-19T07:06:06.229Z,24.1
2017-06-19T07:07:16.175Z,24.06
2017-06-19T07:08:26.123Z,24.09
2017-06-19T07:09:35.752Z,24.13
2017-06-19T07:10:46.023Z,24.18
2017-06-19T07:11:56.292Z,24.2
2017-06-19T07:13:06.243Z,24.12
2017-06-19T07:14:16.200Z,24.12
2017-06-19T07:15:26.468Z,24.06
2017-06-19T07:16:36.422Z,24.03
2017-06-19T07:17:46.688Z,24.08
2017-06-19T07:18:56.635Z,24.08
2017-06-19T07:20:06.594Z,24.06
2017-06-19T07:21:16.551Z,24.08
2017-06-19T07:22:26.823Z,24.12
2017-06-19T07:23:37.094Z,24.06
2017-06-19T07:24:47.042Z,24.09
2017-06-19T07:25:57.294Z,24.08
2017-06-19T07:27:07.246Z,24.09
2017-06-19T07:28:17.192Z,24.15
2017-06-19T07:29:27.454Z,24.1
2017-06-19T07:30:37.710Z,24.1
2017-06-19T07:31:47.666Z,24.1
2017-06-19T07:32:57.942Z,24.09
2017-06-19T07:34:08.209Z,24.09
2017-06-19T07:35:18.476Z,24.12
2017-06-19T07:36:28.109Z,24.13
2017-06-19T07:37:38.377Z,24.12
2017-06-19T07:38:48.325Z,24.22
2017-06-19T07:39:58.592Z,24.12
2017-06-19T07:41:08.860Z,24.13
2017-06-19T07:42:19.128Z,24.16
2017-06-19T07:43:28.769Z,24.09
2017-06-19T07:44:38.090Z,24.13
2017-06-19T07:45:48.371Z,24.16
2017-06-19T07:46:58.639Z,24.1
2017-06-19T07:48:08.277Z,24.12
2017-06-19T07:49:18.229Z,24.13
2017-06-19T07:50:27.552Z,24.08
2017-06-19T07:51:37.508Z,24.09
2017-06-19T07:52:46.830Z,24.05
2017-06-19T07:53:56.783Z,24.09
2017-06-19T07:55:07.050Z,24.06
2017-06-19T07:56:16.687Z,24.06
2017-06-19T07:57:26.326Z,24.08
2017-06-19T07:58:36.279Z,24.06
2017-06-19T07:59:46.224Z,24.08
2017-06-19T08:00:56.495Z,24.16
2017-06-19T08:02:06.764Z,24.05
2017-06-19T08:03:17.030Z,24.06
2017-06-19T08:04:26.701Z,24.08
2017-06-19T08:05:36.647Z,24.12
2017-06-19T08:06:46.918Z,24.06
2017-06-19T08:07:56.890Z,24.12
2017-06-19T08:09:07.168Z,24.06
2017-06-19T08:10:17.122Z,24.13
2017-06-19T08:11:27.082Z,24.12
2017-06-19T08:12:37.347Z,24.12
2017-06-19T08:13:47.611Z,24.08
2017-06-19T08:14:57.878Z,24.13
2017-06-19T08:16:07.522Z,24.09
2017-06-19T08:17:17.158Z,24.16
2017-06-19T08:18:26.488Z,24.13
2017-06-19T08:19:36.442Z,24.16
2017-06-19T08:20:46.709Z,24.06
2017-06-19T08:21:56.684Z,24.13
2017-06-19T08:23:06.644Z,24.12
2017-06-19T08:24:16.596Z,24.15
2017-06-19T08:25:26.870Z,24.15
2017-06-19T08:26:36.827Z,24.15
2017-06-19T08:27:46.792Z,24.12
2017-06-19T08:28:57.062Z,24.1
2017-06-19T08:30:07.018Z,24.09
2017-06-19T08:31:16.977Z,24.12
2017-06-19T08:32:27.243Z,24.09
2017-06-19T08:33:37.524Z,24.2
2017-06-19T08:34:47.481Z,24.18
2017-06-19T08:35:56.807Z,24.1
2017-06-19T08:37:06.445Z,24.13
2017-06-19T08:38:16.717Z,24.13
2017-06-19T08:39:26.989Z,24.09
2017-06-19T08:40:36.936Z,24.09
2017-06-19T08:41:47.197Z,24.12
2017-06-19T08:42:56.830Z,24.09
2017-06-19T08:44:07.105Z,24.1
2017-06-19T08:45:17.366Z,24.08
2017-06-19T08:46:27.632Z,24.08
2017-06-19T08:47:37.584Z,24.09
2017-06-19T08:48:47.848Z,24.06
2017-06-19T08:49:58.115Z,24.06
2017-06-19T08:51:08.060Z,24.1
2017-06-19T08:52:17.073Z,24.2
2017-06-19T08:53:26.706Z,24.08
2017-06-19T08:54:36.660Z,24.1
2017-06-19T08:55:46.932Z,24.08
2017-06-19T08:56:56.890Z,24.1
2017-06-19T08:58:07.160Z,24.12
2017-06-19T08:59:16.798Z,24.06
2017-06-19T09:00:26.741Z,24.12
2017-06-19T09:01:37.008Z,24.06
2017-06-19T09:02:46.962Z,24.08
2017-06-19T09:03:56.927Z,24.06
2017-06-19T09:05:06.880Z,24.06
2017-06-19T09:06:17.140Z,24.1
2017-06-19T09:07:27.409Z,24.06
2017-06-19T09:08:37.362Z,24.09
2017-06-19T09:09:46.370Z,24.09
2017-06-19T09:10:56.325Z,24.09
2017-06-19T09:12:06.596Z,24.06
2017-06-19T09:13:16.238Z,24.06
2017-06-19T09:14:25.870Z,24.08
2017-06-19T09:15:35.823Z,24.06
2017-06-19T09:16:45.474Z,24.06
2017-06-19T09:17:55.114Z,24.06
2017-06-19T09:19:05.382Z,24.16
2017-06-19T09:20:15.336Z,24.06
2017-06-19T09:21:25.599Z,24.08
2017-06-19T09:22:35.560Z,24.1
2017-06-19T09:23:45.830Z,24.13
2017-06-19T09:24:55.153Z,24.16
2017-06-19T09:26:04.802Z,24.16
2017-06-19T09:27:15.067Z,24.22
2017-06-19T09:28:25.019Z,24.22
2017-06-19T09:29:34.660Z,24.2
2017-06-19T09:30:44.610Z,24.24
2017-06-19T09:31:54.873Z,24.27
2017-06-19T09:33:04.830Z,24.28
2017-06-19T09:34:15.098Z,24.25
2017-06-19T09:35:25.370Z,24.28
2017-06-19T09:36:34.696Z,24.34
2017-06-19T09:37:44.961Z,24.39
2017-06-19T09:38:55.226Z,24.37
2017-06-19T09:40:05.492Z,24.37
2017-06-19T09:41:15.760Z,24.39
2017-06-19T09:42:25.710Z,24.37
2017-06-19T09:43:35.667Z,24.35
2017-06-19T09:44:45.615Z,24.28
2017-06-19T09:45:55.254Z,24.32
2017-06-19T09:47:05.529Z,24.35
2017-06-19T09:48:15.820Z,24.37
2017-06-19T09:49:26.091Z,24.37
2017-06-19T09:50:36.045Z,24.34
2017-06-19T09:51:45.676Z,24.32
2017-06-19T09:52:55.309Z,24.31
2017-06-19T09:54:05.262Z,24.3
2017-06-19T09:55:14.902Z,24.28
2017-06-19T09:56:24.229Z,24.3
2017-06-19T09:57:34.183Z,24.25
2017-06-19T09:58:43.821Z,24.28
2017-06-19T09:59:53.777Z,24.3
2017-06-19T10:01:04.052Z,24.37
2017-06-19T10:02:14.317Z,24.31
2017-06-19T10:03:24.270Z,24.4
2017-06-19T10:04:34.221Z,24.35
2017-06-19T10:05:44.486Z,24.37
2017-06-19T10:06:54.756Z,24.32
2017-06-19T10:08:04.397Z,24.39
2017-06-19T10:09:14.038Z,24.32
2017-06-19T10:10:24.305Z,24.39
2017-06-19T10:11:34.263Z,24.39
2017-06-19T10:12:44.527Z,24.34
2017-06-19T10:13:54.492Z,24.37
2017-06-19T10:15:04.442Z,24.31
2017-06-19T10:16:14.393Z,24.47
2017-06-19T10:17:24.687Z,24.37
2017-06-19T10:18:34.956Z,24.34
2017-06-19T10:19:44.912Z,24.46
2017-06-19T10:20:55.178Z,24.39
2017-06-19T10:22:05.130Z,24.42
2017-06-19T10:23:15.086Z,24.43
2017-06-19T10:24:25.069Z,24.43
2017-06-19T10:25:35.340Z,24.5
2017-06-19T10:26:45.614Z,24.57
2017-06-19T10:27:55.565Z,24.43
2017-06-19T10:29:05.205Z,24.46
2017-06-19T10:30:15.155Z,24.49
2017-06-19T10:31:25.434Z,24.46
2017-06-19T10:32:35.710Z,24.49
2017-06-19T10:33:45.967Z,24.46
2017-06-19T10:34:55.605Z,24.5
2017-06-19T10:36:05.874Z,24.45
2017-06-19T10:37:15.829Z,24.46
2017-06-19T10:38:26.088Z,24.43
2017-06-19T10:39:36.357Z,24.39
2017-06-19T10:40:45.998Z,24.49
2017-06-19T10:41:56.266Z,24.5
2017-06-19T10:43:06.539Z,24.57
2017-06-19T10:44:16.490Z,24.58
2017-06-19T10:45:26.461Z,24.53
2017-06-19T10:46:36.420Z,24.55
2017-06-19T10:47:46.065Z,24.6
2017-06-19T10:48:56.330Z,24.55
2017-06-19T10:50:06.603Z,24.58
2017-06-19T10:51:16.244Z,24.5
2017-06-19T10:52:26.192Z,24.64
2017-06-19T10:53:36.143Z,24.53
2017-06-19T10:54:46.407Z,24.65
2017-06-19T10:55:56.360Z,24.61
2017-06-19T10:57:05.997Z,24.64
2017-06-19T10:58:15.984Z,24.6
2017-06-19T10:59:25.618Z,24.58
2017-06-19T11:00:35.571Z,24.53
2017-06-19T11:01:45.844Z,24.6
2017-06-19T11:02:56.122Z,24.5
2017-06-19T11:04:06.392Z,24.53
2017-06-19T11:05:16.661Z,24.55
2017-06-19T11:06:26.614Z,24.62
2017-06-19T11:07:36.250Z,24.55
2017-06-19T11:08:45.890Z,24.47
2017-06-19T11:09:55.838Z,24.46
2017-06-19T11:11:05.467Z,24.47
2017-06-19T11:12:15.416Z,24.52
2017-06-19T11:13:25.681Z,24.46
2017-06-19T11:14:35.631Z,24.49
2017-06-19T11:15:45.270Z,24.46
2017-06-19T11:16:55.538Z,24.53
2017-06-19T11:18:05.804Z,24.47
2017-06-19T11:19:15.766Z,24.45
2017-06-19T11:20:25.711Z,24.45
2017-06-19T11:21:35.666Z,24.46
2017-06-19T11:22:45.614Z,24.5
2017-06-19T11:23:55.269Z,24.46
2017-06-19T11:25:04.900Z,24.5
2017-06-19T11:26:14.861Z,24.47
2017-06-19T11:27:25.131Z,24.46
2017-06-19T11:28:35.395Z,24.46
2017-06-19T11:29:45.352Z,24.47
2017-06-19T11:30:55.304Z,24.46
2017-06-19T11:32:04.938Z,24.46
2017-06-19T11:33:14.264Z,24.5
2017-06-19T11:34:24.226Z,24.47
2017-06-19T11:35:34.177Z,24.42
2017-06-19T11:36:44.132Z,24.43
2017-06-19T11:37:54.445Z,24.46
2017-06-19T11:39:04.400Z,24.5
2017-06-19T11:40:14.041Z,24.53
2017-06-19T11:41:23.995Z,24.52
2017-06-19T11:42:33.942Z,24.53
2017-06-19T11:43:43.606Z,24.45
2017-06-19T11:44:53.863Z,24.49
2017-06-19T11:46:03.507Z,24.57
2017-06-19T11:47:13.461Z,24.52
2017-06-19T11:48:23.100Z,24.47
2017-06-19T11:49:33.372Z,24.49
2017-06-19T11:50:43.010Z,24.47
2017-06-19T11:51:52.646Z,24.45
2017-06-19T11:53:02.596Z,24.43
2017-06-19T11:54:12.234Z,24.43
2017-06-19T11:55:22.187Z,24.45
2017-06-19T11:56:32.458Z,24.47
2017-06-19T11:57:42.726Z,24.49
2017-06-19T11:58:52.992Z,24.46
2017-06-19T12:00:03.259Z,24.4
2017-06-19T12:01:12.267Z,24.45
2017-06-19T12:02:22.214Z,24.4
2017-06-19T12:03:32.162Z,24.37
2017-06-19T12:04:42.419Z,24.39
2017-06-19T12:05:52.366Z,24.4
2017-06-19T12:07:02.319Z,24.43
2017-06-19T12:08:12.270Z,24.4
2017-06-19T12:09:22.534Z,24.4
2017-06-19T12:10:32.805Z,24.45
2017-06-19T12:11:43.088Z,24.45
2017-06-19T12:12:53.348Z,24.43
2017-06-19T12:14:02.988Z,24.5
2017-06-19T12:15:12.941Z,24.46
2017-06-19T12:16:22.580Z,24.47
2017-06-19T12:17:32.855Z,24.43
2017-06-19T12:18:43.123Z,24.47
2017-06-19T12:19:53.393Z,24.47
2017-06-19T12:21:03.344Z,24.47
2017-06-19T12:22:13.025Z,24.46
2017-06-19T12:23:22.675Z,24.53
2017-06-19T12:24:32.947Z,24.55
2017-06-19T12:25:42.897Z,24.57
2017-06-19T12:26:52.851Z,24.85
2017-06-19T12:28:02.803Z,24.77
2017-06-19T12:29:12.125Z,24.68
2017-06-19T12:30:22.081Z,24.67
2017-06-19T12:31:32.043Z,24.53
2017-06-19T12:32:41.688Z,24.53
2017-06-19T12:33:51.012Z,24.49
2017-06-19T12:35:00.645Z,24.57
2017-06-19T12:36:10.934Z,24.65
2017-06-19T12:37:21.202Z,24.71
2017-06-19T12:38:31.467Z,24.65
2017-06-19T12:39:41.738Z,24.65
2017-06-19T12:40:52.013Z,24.65
2017-06-19T12:42:01.646Z,24.71
2017-06-19T12:43:11.598Z,24.67
2017-06-19T12:44:21.564Z,24.61
2017-06-19T12:45:31.845Z,24.73
2017-06-19T12:46:41.482Z,24.85
2017-06-19T12:47:51.434Z,25
2017-06-19T12:49:01.696Z,24.88
2017-06-19T12:50:11.339Z,24.83
2017-06-19T12:51:21.606Z,24.69
2017-06-19T12:52:30.934Z,24.64
2017-06-19T12:53:40.891Z,24.65
2017-06-19T12:54:51.157Z,24.64
2017-06-19T12:56:01.108Z,24.53
2017-06-19T12:57:11.057Z,24.53
2017-06-19T12:58:21.319Z,24.57
2017-06-19T12:59:31.594Z,24.55
2017-06-19T13:00:41.864Z,24.5
2017-06-19T13:01:52.124Z,24.46
2017-06-19T13:03:02.390Z,24.52
2017-06-19T13:04:12.342Z,24.47
2017-06-19T13:05:22.296Z,24.5
2017-06-19T13:06:32.561Z,24.49
2017-06-19T13:07:42.514Z,24.46
2017-06-19T13:08:52.462Z,24.58
2017-06-19T13:10:02.730Z,24.43
2017-06-19T13:11:12.389Z,24.52
2017-06-19T13:12:22.346Z,24.47
2017-06-19T13:13:32.614Z,24.49
2017-06-19T13:14:42.885Z,24.49
2017-06-19T13:15:53.156Z,24.47
2017-06-19T13:17:03.110Z,24.49
2017-06-19T13:18:12.749Z,24.49
2017-06-19T13:19:22.709Z,24.47
2017-06-19T13:20:32.666Z,24.46
2017-06-19T13:21:41.989Z,24.47
2017-06-19T13:22:51.953Z,24.46
2017-06-19T13:24:01.906Z,24.47
2017-06-19T13:25:12.176Z,24.52
2017-06-19T13:26:21.818Z,24.53
2017-06-19T13:27:32.091Z,24.57
2017-06-19T13:28:42.043Z,24.53
2017-06-19T13:29:52.308Z,24.53
2017-06-19T13:31:02.259Z,24.55
2017-06-19T13:32:12.553Z,24.67
2017-06-19T13:33:22.217Z,24.53
2017-06-19T13:34:31.539Z,24.57
2017-06-19T13:35:40.904Z,24.46
2017-06-19T13:36:50.539Z,24.47
2017-06-19T13:38:00.492Z,24.47
2017-06-19T13:39:10.441Z,24.55
2017-06-19T13:40:20.079Z,24.49
2017-06-19T13:41:30.336Z,24.42
2017-06-19T13:42:40.601Z,24.49
2017-06-19T13:43:50.870Z,24.46
2017-06-19T13:45:00.815Z,24.52
2017-06-19T13:46:10.768Z,24.42
2017-06-19T13:47:20.722Z,24.45
2017-06-19T13:48:30.050Z,24.46
2017-06-19T13:49:40.001Z,24.49
2017-06-19T13:50:49.330Z,24.47
2017-06-19T13:51:58.965Z,24.42
2017-06-19T13:53:07.973Z,24.45
2017-06-19T13:54:17.605Z,24.46
2017-06-19T13:55:27.240Z,24.45
2017-06-19T13:56:36.248Z,24.42
2017-06-19T13:57:45.575Z,24.47
2017-06-19T13:58:55.838Z,24.49
2017-06-19T14:00:06.107Z,24.55
2017-06-19T14:01:16.056Z,24.52
2017-06-19T14:02:26.322Z,24.55
2017-06-19T14:03:35.959Z,24.52
2017-06-19T14:04:45.601Z,24.53
2017-06-19T14:05:55.555Z,24.53
2017-06-19T14:07:05.507Z,24.52
2017-06-19T14:08:15.772Z,24.57
2017-06-19T14:09:26.035Z,24.6
2017-06-19T14:10:36.014Z,24.61
2017-06-19T14:11:45.651Z,24.58
2017-06-19T14:12:55.613Z,24.58
2017-06-19T14:14:05.248Z,24.58
2017-06-19T14:15:14.879Z,24.58
2017-06-19T14:16:24.522Z,24.55
2017-06-19T14:17:34.477Z,24.58
2017-06-19T14:18:44.423Z,24.55
2017-06-19T14:19:54.061Z,24.61
2017-06-19T14:21:03.700Z,24.65
2017-06-19T14:22:13.685Z,24.62
2017-06-19T14:23:23.330Z,24.61
2017-06-19T14:24:33.596Z,24.61
2017-06-19T14:25:43.867Z,24.6
2017-06-19T14:26:53.823Z,24.55
2017-06-19T14:28:03.781Z,24.58
2017-06-19T14:29:14.058Z,24.67
2017-06-19T14:30:24.015Z,24.62
2017-06-19T14:31:33.961Z,24.68
2017-06-19T14:32:43.621Z,24.62
2017-06-19T14:33:53.887Z,24.65
2017-06-19T14:35:03.841Z,24.68
2017-06-19T14:36:13.486Z,24.61
2017-06-19T14:37:23.787Z,24.61
2017-06-19T14:38:33.740Z,24.53
2017-06-19T14:39:44.011Z,24.57
2017-06-19T14:40:53.962Z,24.6
2017-06-19T14:42:04.237Z,24.57
2017-06-19T14:43:14.503Z,24.55
2017-06-19T14:44:24.765Z,24.64
2017-06-19T14:45:34.403Z,24.52
2017-06-19T14:46:44.671Z,24.57
2017-06-19T14:47:54.628Z,24.68
2017-06-19T14:49:04.265Z,24.65
2017-06-19T14:50:13.909Z,24.65
2017-06-19T14:51:24.174Z,24.62
2017-06-19T14:52:34.129Z,24.64
2017-06-19T14:53:44.085Z,24.57
2017-06-19T14:54:54.033Z,24.67
2017-06-19T14:56:03.356Z,24.53
2017-06-19T14:57:13.628Z,24.64
2017-06-19T14:58:22.944Z,24.53
2017-06-19T14:59:33.214Z,24.61
2017-06-19T15:00:42.534Z,24.62
2017-06-19T15:01:52.488Z,24.68
2017-06-19T15:03:02.443Z,24.65
2017-06-19T15:04:12.391Z,24.65